createdAt,value
2019-05-12T00:00:44.374Z,69.46
2019-05-12T00:03:13.141Z,69.25
2019-05-12T00:05:42.118Z,69.31
2019-05-12T00:08:11.247Z,69.50
2019-05-12T00:10:40.272Z,69.95
2019-05-12T00:13:09.098Z,70.04
2019-05-12T00:15:38.426Z,69.96
2019-05-12T00:18:09.046Z,69.74
2019-05-12T00:20:38.615Z,70.28
2019-05-12T00:23:23.169Z,70.12
2019-05-12T00:25:35.497Z,70.75
2019-05-12T00:28:04.875Z,70.32
2019-05-12T00:30:38.481Z,70.53
2019-05-12T00:33:05.071Z,70.25
2019-05-12T00:35:33.921Z,70.81
2019-05-12T00:38:03.812Z,70.91
2019-05-12T00:40:32.642Z,71.03
2019-05-12T00:43:01.443Z,71.33
2019-05-12T00:45:30.237Z,71.10
2019-05-12T00:47:59.251Z,71.05
2019-05-12T00:50:28.835Z,71.09
2019-05-12T00:52:57.962Z,71.12
2019-05-12T00:55:25.686Z,71.33
2019-05-12T00:57:54.860Z,71.78
2019-05-12T01:00:23.684Z,71.27
2019-05-12T01:02:52.500Z,71.98
2019-05-12T01:05:21.380Z,72.61
2019-05-12T01:07:51.230Z,72.63
2019-05-12T01:10:19.595Z,72.42
2019-05-12T01:12:48.650Z,73.00
2019-05-12T01:15:17.742Z,72.54
2019-05-12T01:17:47.771Z,72.99
2019-05-12T01:20:14.946Z,73.14
2019-05-12T01:22:43.715Z,72.81
2019-05-12T01:25:13.141Z,73.59
2019-05-12T01:27:42.010Z,73.31
2019-05-12T01:30:10.813Z,73.13
2019-05-12T01:32:40.539Z,73.35
2019-05-12T01:35:09.358Z,73.07
2019-05-12T01:37:38.569Z,72.31
2019-05-12T01:40:09.792Z,73.02
2019-05-12T01:42:39.256Z,72.81
2019-05-12T01:45:09.287Z,72.88
2019-05-12T01:47:38.238Z,73.04
2019-05-12T01:50:09.049Z,73.07
2019-05-12T01:52:38.659Z,73.47
2019-05-12T01:55:08.243Z,73.46
2019-05-12T01:57:35.590Z,73.40
2019-05-12T02:00:05.024Z,73.12
2019-05-12T02:02:33.808Z,73.54
2019-05-12T02:05:04.480Z,73.67
2019-05-12T02:07:35.721Z,73.83
2019-05-12T02:10:09.092Z,73.97
2019-05-12T02:12:35.148Z,74.42
2019-05-12T02:15:04.967Z,73.78
2019-05-12T02:17:34.667Z,74.81
2019-05-12T02:20:03.518Z,74.47
2019-05-12T02:22:32.312Z,74.45
2019-05-12T02:25:02.024Z,74.92
2019-05-12T02:27:30.808Z,74.62
2019-05-12T02:29:59.713Z,74.86
2019-05-12T02:32:37.644Z,74.93
2019-05-12T02:34:58.286Z,74.47
2019-05-12T02:37:27.132Z,75.09
2019-05-12T02:39:56.041Z,75.02
2019-05-12T02:42:25.279Z,74.69
2019-05-12T02:44:55.181Z,74.69
2019-05-12T02:47:24.111Z,74.11
2019-05-12T02:49:54.428Z,74.59
2019-05-12T02:52:24.804Z,74.57
2019-05-12T02:54:56.986Z,75.06
2019-05-12T02:57:20.224Z,74.35
2019-05-12T02:59:49.082Z,74.30
2019-05-12T03:02:17.920Z,74.74
2019-05-12T03:04:47.035Z,75.68
2019-05-12T03:07:16.519Z,75.36
2019-05-12T03:09:45.313Z,76.24
2019-05-12T03:12:14.527Z,75.95
2019-05-12T03:14:44.790Z,75.68
2019-05-12T03:17:11.683Z,75.11
2019-05-12T03:19:40.549Z,75.83
2019-05-12T03:22:09.382Z,75.25
2019-05-12T03:24:38.259Z,74.87
2019-05-12T03:27:07.113Z,74.92
2019-05-12T03:29:35.932Z,75.22
2019-05-12T03:32:08.158Z,75.23
2019-05-12T03:34:38.280Z,75.43
2019-05-12T03:37:07.776Z,75.86
2019-05-12T03:39:34.241Z,76.46
2019-05-12T03:42:00.144Z,76.69
2019-05-12T03:44:28.913Z,76.32
2019-05-12T03:46:57.758Z,76.53
2019-05-12T03:49:26.529Z,76.04
2019-05-12T03:51:56.326Z,75.95
2019-05-12T03:54:25.137Z,76.55
2019-05-12T03:56:55.721Z,76.05
2019-05-12T03:59:25.369Z,76.56
2019-05-12T04:01:55.174Z,76.32
2019-05-12T04:04:24.332Z,76.13
2019-05-12T04:06:50.220Z,76.20
2019-05-12T04:09:19.079Z,75.53
2019-05-12T04:11:49.232Z,75.77
2019-05-12T04:14:18.025Z,75.64
2019-05-12T04:16:46.885Z,74.78
2019-05-12T04:19:17.739Z,74.94
2019-05-12T04:21:46.584Z,74.80
2019-05-12T04:24:15.536Z,74.78
2019-05-12T04:26:45.043Z,74.41
2019-05-12T04:29:15.400Z,74.22
2019-05-12T04:31:44.295Z,75.05
2019-05-12T04:34:15.795Z,75.42
2019-05-12T04:36:44.624Z,75.21
2019-05-12T04:39:10.202Z,75.07
2019-05-12T04:41:39.026Z,74.63
2019-05-12T04:44:08.465Z,74.21
2019-05-12T04:46:37.908Z,74.87
2019-05-12T04:49:06.705Z,74.16
2019-05-12T04:51:35.922Z,73.99
2019-05-12T04:54:05.849Z,73.03
2019-05-12T04:56:35.852Z,72.98
2019-05-12T04:59:04.958Z,72.26
2019-05-12T05:01:34.503Z,71.67
2019-05-12T05:04:01.210Z,71.03
2019-05-12T05:06:30.002Z,70.75
2019-05-12T05:08:58.968Z,70.47
2019-05-12T05:11:27.782Z,69.33
2019-05-12T05:13:56.571Z,68.72
2019-05-12T05:16:25.359Z,68.13
2019-05-12T05:18:54.414Z,68.18
2019-05-12T05:21:24.244Z,67.82
2019-05-12T05:23:54.316Z,67.79
2019-05-12T05:26:27.946Z,66.51
2019-05-12T05:28:54.091Z,66.52
2019-05-12T05:31:20.716Z,61.95
2019-05-12T05:33:50.288Z,59.37
2019-05-12T05:36:19.944Z,55.32
2019-05-12T05:38:51.085Z,49.38
2019-05-12T05:41:16.180Z,43.89
2019-05-12T05:43:48.629Z,39.46
2019-05-12T05:46:13.967Z,36.74
2019-05-12T05:48:43.979Z,34.24
2019-05-12T05:51:13.596Z,32.87
2019-05-12T05:53:43.998Z,31.09
2019-05-12T05:56:10.254Z,29.38
2019-05-12T05:58:40.163Z,27.22
2019-05-12T06:01:08.415Z,26.19
2019-05-12T06:03:37.511Z,25.84
2019-05-12T06:06:12.179Z,24.82
2019-05-12T06:08:35.784Z,23.75
2019-05-12T06:11:08.276Z,23.10
2019-05-12T06:13:34.527Z,20.35
2019-05-12T06:16:04.392Z,21.86
2019-05-12T06:18:33.466Z,24.11
2019-05-12T06:21:03.295Z,25.42
2019-05-12T06:23:34.907Z,28.07
2019-05-12T06:26:00.303Z,29.08
2019-05-12T06:28:31.286Z,31.55
2019-05-12T06:30:58.279Z,32.10
2019-05-12T06:33:31.619Z,33.75
2019-05-12T06:35:56.506Z,33.57
2019-05-12T06:38:25.322Z,31.75
2019-05-12T06:40:54.482Z,31.73
2019-05-12T06:43:24.387Z,33.92
2019-05-12T06:45:54.339Z,34.24
2019-05-12T06:48:28.426Z,35.08
2019-05-12T06:50:50.147Z,35.52
2019-05-12T06:53:20.017Z,37.04
2019-05-12T06:55:47.766Z,37.38
2019-05-12T06:58:25.962Z,38.69
2019-05-12T07:00:45.397Z,39.86
2019-05-12T07:03:14.468Z,40.92
2019-05-12T07:05:45.223Z,41.61
2019-05-12T07:08:11.930Z,42.75
2019-05-12T07:10:44.278Z,43.14
2019-05-12T07:13:14.667Z,43.72
2019-05-12T07:15:40.529Z,44.79
2019-05-12T07:18:13.540Z,45.76
2019-05-12T07:20:43.580Z,46.74
2019-05-12T07:23:10.887Z,47.69
2019-05-12T07:25:39.927Z,49.15
2019-05-12T07:28:08.774Z,49.43
2019-05-12T07:30:37.597Z,48.85
2019-05-12T07:33:06.430Z,48.14
2019-05-12T07:35:35.207Z,49.31
2019-05-12T07:38:04.929Z,49.71
2019-05-12T07:40:37.242Z,49.98
2019-05-12T07:43:04.120Z,49.66
2019-05-12T07:45:34.047Z,50.44
2019-05-12T07:48:05.715Z,49.59
2019-05-12T07:50:30.010Z,47.88
2019-05-12T07:52:59.699Z,46.96
2019-05-12T07:55:28.565Z,47.55
2019-05-12T07:58:03.936Z,46.93
2019-05-12T08:00:26.252Z,46.11
2019-05-12T08:02:55.104Z,44.41
2019-05-12T08:05:24.061Z,44.65
2019-05-12T08:07:53.560Z,43.66
2019-05-12T08:10:23.450Z,46.30
2019-05-12T08:12:59.309Z,44.45
2019-05-12T08:15:20.215Z,41.89
2019-05-12T08:17:49.323Z,43.68
2019-05-12T08:20:19.382Z,43.45
2019-05-12T08:22:48.175Z,42.09
2019-05-12T08:25:18.813Z,42.52
2019-05-12T08:27:50.229Z,41.01
2019-05-12T08:30:18.151Z,40.08
2019-05-12T08:32:47.037Z,38.64
2019-05-12T08:35:25.555Z,39.42
2019-05-12T08:37:46.516Z,39.31
2019-05-12T08:40:15.633Z,37.84
2019-05-12T08:42:44.307Z,38.60
2019-05-12T08:45:23.944Z,38.69
2019-05-12T08:47:44.378Z,39.60
2019-05-12T08:50:13.701Z,39.69
2019-05-12T08:52:44.224Z,39.40
2019-05-12T08:55:13.830Z,37.33
2019-05-12T08:57:46.497Z,39.96
2019-05-12T09:00:09.005Z,39.82
2019-05-12T09:02:39.918Z,40.39
2019-05-12T09:05:06.572Z,39.95
2019-05-12T09:07:39.705Z,39.63
2019-05-12T09:10:04.349Z,40.35
2019-05-12T09:12:33.718Z,40.60
2019-05-12T09:15:04.283Z,41.00
2019-05-12T09:17:30.724Z,41.44
2019-05-12T09:20:06.075Z,40.97
2019-05-12T09:22:28.351Z,41.53
2019-05-12T09:24:58.356Z,45.48
2019-05-12T09:27:26.379Z,46.34
2019-05-12T09:29:59.069Z,46.78
2019-05-12T09:32:24.652Z,47.33
2019-05-12T09:34:58.193Z,48.03
2019-05-12T09:37:24.059Z,48.25
2019-05-12T09:39:53.823Z,47.69
2019-05-12T09:42:25.718Z,47.61
2019-05-12T09:44:50.492Z,46.08
2019-05-12T09:47:23.110Z,45.43
2019-05-12T09:49:48.650Z,44.84
2019-05-12T09:52:22.078Z,43.99
2019-05-12T09:54:46.222Z,44.18
2019-05-12T09:57:15.010Z,44.04
2019-05-12T09:59:45.936Z,43.51
2019-05-12T10:02:18.623Z,44.49
2019-05-12T10:04:43.665Z,42.96
2019-05-12T10:07:13.990Z,42.38
2019-05-12T10:09:44.003Z,40.42
2019-05-12T10:12:13.449Z,40.95
2019-05-12T10:14:40.729Z,40.47
2019-05-12T10:17:10.326Z,37.88
2019-05-12T10:19:40.443Z,39.37
2019-05-12T10:22:09.334Z,40.74
2019-05-12T10:24:46.998Z,40.66
2019-05-12T10:27:08.255Z,40.18
2019-05-12T10:29:37.423Z,40.48
2019-05-12T10:32:10.149Z,41.23
2019-05-12T10:34:40.137Z,39.97
2019-05-12T10:37:04.539Z,40.59
2019-05-12T10:39:33.527Z,39.59
2019-05-12T10:42:02.184Z,39.15
2019-05-12T10:44:39.241Z,38.86
2019-05-12T10:47:00.472Z,37.56
2019-05-12T10:49:29.283Z,37.41
2019-05-12T10:51:58.070Z,37.43
2019-05-12T10:54:26.918Z,36.14
2019-05-12T10:56:55.811Z,36.42
2019-05-12T10:59:32.326Z,36.17
2019-05-12T11:01:54.068Z,37.18
2019-05-12T11:04:35.226Z,36.83
2019-05-12T11:06:51.259Z,37.79
2019-05-12T11:09:21.402Z,37.84
2019-05-12T11:11:50.161Z,38.43
2019-05-12T11:14:20.303Z,38.45
2019-05-12T11:16:47.940Z,38.80
2019-05-12T11:19:17.328Z,37.98
2019-05-12T11:21:46.192Z,37.69
2019-05-12T11:24:15.096Z,36.49
2019-05-12T11:26:43.880Z,35.13
2019-05-12T11:29:14.141Z,35.67
2019-05-12T11:31:44.165Z,34.36
2019-05-12T11:34:10.967Z,35.00
2019-05-12T11:36:40.210Z,35.03
2019-05-12T11:39:09.014Z,35.24
2019-05-12T11:41:37.831Z,36.51
2019-05-12T11:44:07.207Z,37.79
2019-05-12T11:46:36.748Z,39.35
2019-05-12T11:49:09.369Z,39.81
2019-05-12T11:51:35.151Z,41.21
2019-05-12T11:54:08.951Z,42.68
2019-05-12T11:56:33.712Z,43.02
2019-05-12T11:59:02.400Z,43.29
2019-05-12T12:01:31.202Z,42.65
2019-05-12T12:04:00.793Z,40.95
2019-05-12T12:06:29.659Z,40.54
2019-05-12T12:08:59.499Z,41.73
2019-05-12T12:11:29.126Z,41.58
2019-05-12T12:14:00.232Z,40.78
2019-05-12T12:16:26.751Z,39.00
2019-05-12T12:19:02.157Z,39.70
2019-05-12T12:21:24.925Z,40.51
2019-05-12T12:23:53.815Z,40.16
2019-05-12T12:26:29.971Z,38.78
2019-05-12T12:28:54.807Z,39.68
2019-05-12T12:31:29.563Z,39.31
2019-05-12T12:33:54.214Z,39.04
2019-05-12T12:36:23.696Z,38.48
2019-05-12T12:38:53.665Z,37.34
2019-05-12T12:41:23.704Z,36.33
2019-05-12T12:43:53.998Z,34.47
2019-05-12T12:46:26.174Z,35.95
2019-05-12T12:48:55.152Z,36.72
2019-05-12T12:51:23.938Z,36.92
2019-05-12T12:53:54.131Z,36.41
2019-05-12T12:56:27.690Z,37.33
2019-05-12T12:58:50.320Z,36.99
2019-05-12T13:01:23.211Z,37.52
2019-05-12T13:03:47.976Z,37.46
2019-05-12T13:06:17.435Z,37.52
2019-05-12T13:08:45.553Z,36.65
2019-05-12T13:11:14.859Z,37.13
2019-05-12T13:13:43.407Z,34.84
2019-05-12T13:16:13.274Z,32.46
2019-05-12T13:18:43.536Z,33.27
2019-05-12T13:21:10.436Z,32.97
2019-05-12T13:23:41.124Z,33.83
2019-05-12T13:26:08.215Z,33.91
2019-05-12T13:28:37.056Z,34.56
2019-05-12T13:31:11.201Z,34.47
2019-05-12T13:33:35.499Z,35.43
2019-05-12T13:36:04.514Z,34.66
2019-05-12T13:38:36.423Z,33.95
2019-05-12T13:41:04.392Z,34.87
2019-05-12T13:43:33.915Z,34.16
2019-05-12T13:46:00.376Z,33.77
2019-05-12T13:48:29.985Z,33.66
2019-05-12T13:51:07.737Z,33.65
2019-05-12T13:53:27.576Z,32.96
2019-05-12T13:55:57.564Z,33.76
2019-05-12T13:58:33.500Z,34.42
2019-05-12T14:01:13.624Z,34.62
2019-05-12T14:03:27.984Z,34.05
2019-05-12T14:05:56.163Z,33.44
2019-05-12T14:08:26.670Z,34.23
2019-05-12T14:10:59.484Z,33.85
2019-05-12T14:13:24.628Z,33.05
2019-05-12T14:15:56.978Z,32.38
2019-05-12T14:18:25.807Z,32.83
2019-05-12T14:20:58.865Z,33.30
2019-05-12T14:23:24.005Z,32.92
2019-05-12T14:25:54.268Z,32.76
2019-05-12T14:28:23.228Z,32.13
2019-05-12T14:30:53.837Z,33.99
2019-05-12T14:33:18.831Z,33.94
2019-05-12T14:35:47.617Z,34.23
2019-05-12T14:38:19.462Z,35.75
2019-05-12T14:40:47.525Z,34.78
2019-05-12T14:43:21.302Z,35.52
2019-05-12T14:45:46.538Z,36.58
2019-05-12T14:48:15.535Z,37.06
2019-05-12T14:50:45.141Z,37.54
2019-05-12T14:53:14.634Z,38.12
2019-05-12T14:55:46.147Z,38.17
2019-05-12T14:58:20.338Z,39.09
2019-05-12T15:00:44.699Z,39.07
2019-05-12T15:03:16.144Z,38.46
2019-05-12T15:05:47.076Z,38.08
2019-05-12T15:08:14.245Z,37.79
2019-05-12T15:10:41.514Z,38.68
2019-05-12T15:13:10.591Z,39.02
2019-05-12T15:15:40.846Z,39.31
2019-05-12T15:18:13.142Z,39.57
2019-05-12T15:20:41.397Z,40.36
2019-05-12T15:23:14.121Z,41.24
2019-05-12T15:25:40.268Z,41.14
2019-05-12T15:28:09.115Z,40.74
2019-05-12T15:30:37.914Z,41.04
2019-05-12T15:33:07.391Z,41.28
2019-05-12T15:35:36.761Z,41.55
2019-05-12T15:38:09.391Z,41.38
2019-05-12T15:40:36.843Z,41.36
2019-05-12T15:43:08.978Z,41.26
2019-05-12T15:45:34.853Z,41.41
2019-05-12T15:48:04.154Z,41.68
2019-05-12T15:50:34.228Z,41.87
2019-05-12T15:53:03.665Z,41.37
2019-05-12T15:55:32.973Z,40.63
2019-05-12T15:58:00.569Z,40.63
2019-05-12T16:00:29.469Z,41.36
2019-05-12T16:02:58.551Z,40.48
2019-05-12T16:05:30.933Z,40.57
2019-05-12T16:07:56.819Z,39.65
2019-05-12T16:10:25.666Z,39.69
2019-05-12T16:12:54.587Z,39.78
2019-05-12T16:15:23.477Z,40.60
2019-05-12T16:17:54.019Z,40.92
2019-05-12T16:20:23.575Z,41.00
2019-05-12T16:22:53.817Z,41.01
2019-05-12T16:25:27.364Z,40.48
2019-05-12T16:27:55.387Z,41.27
2019-05-12T16:30:25.903Z,41.50
2019-05-12T16:32:55.051Z,41.24
2019-05-12T16:35:26.411Z,41.75
2019-05-12T16:37:53.304Z,42.34
2019-05-12T16:40:21.191Z,42.29
2019-05-12T16:42:53.580Z,41.68
2019-05-12T16:45:20.039Z,41.75
2019-05-12T16:47:50.569Z,41.45
2019-05-12T16:50:24.823Z,41.46
2019-05-12T16:52:49.127Z,41.06
2019-05-12T16:55:18.610Z,41.04
2019-05-12T16:57:52.832Z,41.61
2019-05-12T17:00:16.975Z,41.48
2019-05-12T17:02:57.797Z,41.47
2019-05-12T17:05:24.031Z,41.62
2019-05-12T17:07:55.813Z,41.63
2019-05-12T17:10:20.769Z,41.83
2019-05-12T17:12:49.921Z,41.65
2019-05-12T17:15:18.698Z,42.06
2019-05-12T17:17:50.779Z,41.80
2019-05-12T17:20:17.689Z,41.50
2019-05-12T17:22:54.612Z,41.90
2019-05-12T17:25:16.884Z,41.74
2019-05-12T17:27:46.542Z,42.66
2019-05-12T17:30:15.455Z,42.82
2019-05-12T17:32:57.175Z,42.55
2019-05-12T17:35:20.255Z,42.51
2019-05-12T17:37:47.391Z,43.15
2019-05-12T17:40:20.121Z,42.71
2019-05-12T17:42:48.197Z,43.51
2019-05-12T17:45:20.415Z,43.38
2019-05-12T17:47:47.694Z,42.70
2019-05-12T17:50:17.570Z,42.98
2019-05-12T17:52:50.568Z,43.33
2019-05-12T17:55:17.028Z,43.41
2019-05-12T17:57:50.313Z,43.34
2019-05-12T18:00:17.395Z,43.21
2019-05-12T18:02:49.410Z,43.51
2019-05-12T18:05:16.300Z,43.95
2019-05-12T18:07:50.986Z,43.86
2019-05-12T18:10:14.590Z,43.37
2019-05-12T18:12:45.046Z,43.80
2019-05-12T18:15:15.092Z,43.60
2019-05-12T18:17:47.378Z,43.92
2019-05-12T18:20:11.222Z,44.33
2019-05-12T18:22:45.007Z,44.28
2019-05-12T18:25:08.986Z,44.09
2019-05-12T18:27:44.453Z,44.57
2019-05-12T18:30:06.826Z,44.53
2019-05-12T18:32:35.656Z,44.20
2019-05-12T18:35:04.483Z,44.79
2019-05-12T18:37:34.399Z,45.06
2019-05-12T18:40:04.086Z,45.60
2019-05-12T18:42:31.022Z,45.90
2019-05-12T18:45:02.321Z,46.50
2019-05-12T18:47:31.996Z,46.11
2019-05-12T18:49:57.526Z,46.76
2019-05-12T18:52:29.452Z,47.68
2019-05-12T18:55:10.226Z,47.69
2019-05-12T18:57:44.344Z,48.17
2019-05-12T19:00:13.298Z,47.98
2019-05-12T19:02:41.039Z,48.28
2019-05-12T19:05:12.992Z,48.60
2019-05-12T19:07:40.235Z,49.12
2019-05-12T19:10:09.321Z,49.43
2019-05-12T19:12:38.264Z,50.03
2019-05-12T19:15:10.148Z,49.83
2019-05-12T19:17:36.070Z,50.29
2019-05-12T19:20:05.518Z,50.18
2019-05-12T19:22:39.237Z,50.97
2019-05-12T19:25:04.170Z,50.77
2019-05-12T19:27:34.791Z,51.15
2019-05-12T19:30:04.152Z,51.76
2019-05-12T19:32:30.586Z,51.79
2019-05-12T19:34:59.841Z,51.79
2019-05-12T19:37:30.064Z,52.13
2019-05-12T19:39:57.596Z,52.48
2019-05-12T19:42:26.412Z,52.80
2019-05-12T19:44:59.299Z,53.08
2019-05-12T19:47:33.567Z,53.29
2019-05-12T19:49:53.664Z,53.38
2019-05-12T19:52:24.417Z,53.57
2019-05-12T19:54:51.297Z,54.04
2019-05-12T19:57:21.763Z,53.92
2019-05-12T19:59:51.146Z,54.46
2019-05-12T20:02:18.569Z,54.86
2019-05-12T20:04:51.911Z,55.28
2019-05-12T20:07:16.452Z,55.22
2019-05-12T20:09:54.568Z,55.47
2019-05-12T20:12:18.686Z,55.40
2019-05-12T20:14:43.516Z,56.39
2019-05-12T20:17:11.993Z,55.81
2019-05-12T20:19:43.466Z,56.40
2019-05-12T20:22:09.669Z,56.26
2019-05-12T20:24:38.478Z,57.10
2019-05-12T20:27:10.472Z,57.09
2019-05-12T20:29:37.162Z,57.29
2019-05-12T20:32:06.011Z,57.33
2019-05-12T20:34:47.931Z,57.63
2019-05-12T20:37:05.904Z,58.08
2019-05-12T20:39:32.529Z,58.53
2019-05-12T20:42:03.126Z,58.02
2019-05-12T20:44:30.126Z,58.29
2019-05-12T20:47:01.766Z,58.75
2019-05-12T20:49:28.437Z,59.13
2019-05-12T20:52:03.689Z,58.67
2019-05-12T20:54:26.056Z,59.02
2019-05-12T20:57:02.246Z,59.93
2019-05-12T20:59:28.050Z,59.57
2019-05-12T21:01:52.458Z,59.75
2019-05-12T21:04:30.412Z,60.52
2019-05-12T21:06:50.865Z,60.77
2019-05-12T21:09:19.660Z,61.14
2019-05-12T21:11:48.627Z,60.46
2019-05-12T21:14:17.410Z,60.75
2019-05-12T21:16:46.203Z,60.71
2019-05-12T21:19:14.991Z,61.54
2019-05-12T21:21:44.406Z,61.49
2019-05-12T21:24:13.984Z,61.72
2019-05-12T21:26:43.863Z,61.75
2019-05-12T21:29:10.296Z,61.66
2019-05-12T21:31:39.268Z,62.18
2019-05-12T21:34:13.163Z,61.73
2019-05-12T21:36:36.868Z,61.92
2019-05-12T21:39:10.367Z,62.49
2019-05-12T21:41:40.718Z,62.59
2019-05-12T21:44:10.977Z,63.37
2019-05-12T21:46:34.633Z,63.15
2019-05-12T21:49:10.719Z,63.20
2019-05-12T21:51:33.575Z,63.18
2019-05-12T21:54:00.566Z,63.79
2019-05-12T21:56:35.141Z,63.27
2019-05-12T21:58:59.147Z,63.64
2019-05-12T22:01:27.960Z,63.30
2019-05-12T22:04:02.093Z,64.07
2019-05-12T22:06:25.531Z,63.47
2019-05-12T22:09:01.281Z,64.11
2019-05-12T22:11:25.416Z,63.91
2019-05-12T22:13:59.540Z,63.78
2019-05-12T22:16:23.659Z,63.98
2019-05-12T22:18:56.115Z,63.97
2019-05-12T22:21:21.006Z,64.74
2019-05-12T22:23:51.424Z,65.05
2019-05-12T22:26:18.802Z,65.08
2019-05-12T22:28:50.918Z,64.87
2019-05-12T22:31:16.766Z,64.51
2019-05-12T22:33:51.543Z,64.99
2019-05-12T22:36:25.148Z,65.27
2019-05-12T22:38:44.361Z,65.07
2019-05-12T22:41:13.610Z,66.23
2019-05-12T22:43:45.603Z,65.45
2019-05-12T22:46:09.695Z,65.44
2019-05-12T22:48:40.582Z,66.52
2019-05-12T22:51:15.604Z,66.90
2019-05-12T22:53:37.970Z,66.57
2019-05-12T22:56:12.301Z,67.13
2019-05-12T22:58:35.691Z,66.84
2019-05-12T23:01:05.295Z,66.71
2019-05-12T23:03:33.309Z,67.61
2019-05-12T23:06:13.111Z,67.42
2019-05-12T23:08:33.418Z,66.70
2019-05-12T23:11:03.663Z,67.49
2019-05-12T23:13:32.176Z,68.45
2019-05-12T23:15:58.710Z,68.40
2019-05-12T23:18:30.656Z,68.40
2019-05-12T23:20:57.099Z,68.35
2019-05-12T23:23:25.877Z,68.14
2019-05-12T23:26:00.340Z,68.66
2019-05-12T23:28:23.503Z,68.33
2019-05-12T23:30:53.535Z,68.08
2019-05-12T23:33:25.543Z,69.32
2019-05-12T23:35:49.936Z,68.96
2019-05-12T23:38:20.877Z,69.06
2019-05-12T23:40:48.762Z,69.46
2019-05-12T23:43:17.540Z,69.47
2019-05-12T23:45:46.349Z,69.16
2019-05-12T23:48:15.257Z,69.76
2019-05-12T23:50:44.188Z,69.17
2019-05-12T23:53:13.983Z,69.32
2019-05-12T23:55:43.779Z,69.46
2019-05-12T23:58:10.801Z,69.85
